Time;durP1;ratioP1;P1;durP2;ratioP2;P2;SDS_P1;SDS_P2;PMS_P1;PMS_P2;Temp;Humidity;BMP_temperature;BMP_pressure;BME280_temperature;BME280_humidity;BME280_pressure;Samples;Min_cycle;Max_cycle;Signal;HPM_P1;HPM_P2
2022/10/03 00:01:03;;;;;;;0.20;0.20;;;;;;;;;;6345452;28;20484;-71
2022/10/03 00:04:03;;;;;;;0.20;0.20;;;;;;;;;;6347002;28;20023;-72
2022/10/03 00:07:25;;;;;;;0.10;0.10;;;;;;;;;;6365378;28;20387;-72
2022/10/03 00:10:44;;;;;;;1.30;1.30;;;;;;;;;;6360576;28;20011;-72
2022/10/03 00:13:49;;;;;;;0.43;0.43;;;;;;;;;;6361205;28;20015;-73
2022/10/03 00:17:07;;;;;;;0.35;0.35;;;;;;;;;;6363551;28;20482;-72
2022/10/03 00:20:26;;;;;;;1.25;1.05;;;;;;;;;;6358970;28;20026;-72
2022/10/03 00:23:26;;;;;;;0.28;0.28;;;;;;;;;;6362572;28;20351;-72
2022/10/03 00:26:30;;;;;;;0.80;0.80;;;;;;;;;;6343367;28;20028;-72
2022/10/03 00:29:39;;;;;;;0.30;0.30;;;;;;;;;;6352638;28;20023;-71
2022/10/03 00:32:44;;;;;;;3.22;2.05;;;;;;;;;;6352147;28;20023;-72
2022/10/03 00:35:55;;;;;;;0.73;0.63;;;;;;;;;;6331912;28;20024;-72
2022/10/03 00:39:14;;;;;;;0.75;0.75;;;;;;;;;;6343147;28;20025;-72
2022/10/03 00:42:24;;;;;;;14.52;2.42;;;;;;;;;;6361553;28;20220;-72
2022/10/03 00:45:56;;;;;;;2.20;1.65;;;;;;;;;;6346225;28;20623;-72
2022/10/03 00:49:14;;;;;;;0.45;0.35;;;;;;;;;;6318029;27;20473;-72
2022/10/03 00:52:28;;;;;;;0.80;0.80;;;;;;;;;;6366114;27;20014;-72
2022/10/03 00:55:34;;;;;;;1.50;1.35;;;;;;;;;;6370388;27;20019;-72
2022/10/03 00:58:39;;;;;;;2.17;1.20;;;;;;;;;;6366973;27;20058;-72
2022/10/03 01:01:47;;;;;;;0.40;0.40;;;;;;;;;;6370909;27;20020;-72
2022/10/03 01:04:59;;;;;;;1.42;1.33;;;;;;;;;;6368253;27;20017;-72
2022/10/03 01:08:18;;;;;;;2.80;2.28;;;;;;;;;;6366870;27;20023;-72
2022/10/03 01:11:27;;;;;;;0.25;0.25;;;;;;;;;;6364010;27;20454;-72
2022/10/03 01:14:56;;;;;;;0.38;0.38;;;;;;;;;;6368002;27;20078;-72
2022/10/03 01:18:07;;;;;;;0.95;0.95;;;;;;;;;;6296169;27;20387;-72
2022/10/03 01:21:16;;;;;;;0.63;0.63;;;;;;;;;;6366897;27;20027;-73
2022/10/03 01:24:19;;;;;;;1.67;0.90;;;;;;;;;;6363848;27;20272;-72
2022/10/03 01:27:31;;;;;;;0.98;0.98;;;;;;;;;;6366196;27;20172;-72
2022/10/03 01:30:37;;;;;;;1.75;1.65;;;;;;;;;;6367681;27;20054;-72
2022/10/03 01:33:59;;;;;;;6.85;2.97;;;;;;;;;;6365479;27;20023;-72
2022/10/03 01:37:01;;;;;;;2.75;2.35;;;;;;;;;;6345454;27;20034;-72
2022/10/03 01:40:20;;;;;;;0.73;0.73;;;;;;;;;;6342586;27;20024;-72
2022/10/03 01:43:31;;;;;;;0.38;0.38;;;;;;;;;;6361628;27;20387;-72
2022/10/03 01:46:36;;;;;;;0.47;0.47;;;;;;;;;;6363941;27;20470;-72
2022/10/03 01:49:45;;;;;;;1.27;1.27;;;;;;;;;;6355447;27;20093;-72
2022/10/03 01:52:55;;;;;;;2.20;1.45;;;;;;;;;;6359760;27;20023;-73
2022/10/03 01:56:07;;;;;;;0.30;0.30;;;;;;;;;;6366879;27;20026;-72
2022/10/03 01:59:07;;;;;;;0.40;0.40;;;;;;;;;;6366137;27;20042;-71
2022/10/03 02:02:16;;;;;;;0.43;0.43;;;;;;;;;;6357876;27;20092;-72
2022/10/03 02:05:23;;;;;;;1.98;1.88;;;;;;;;;;6360394;27;20020;-72
2022/10/03 02:08:42;;;;;;;0.40;0.40;;;;;;;;;;6359810;27;20383;-71
2022/10/03 02:11:49;;;;;;;0.63;0.63;;;;;;;;;;6354482;27;20378;-72
2022/10/03 02:15:04;;;;;;;0.45;0.45;;;;;;;;;;6357677;27;20039;-71
2022/10/03 02:18:22;;;;;;;0.85;0.85;;;;;;;;;;6346012;27;20045;-72
2022/10/03 02:21:25;;;;;;;0.10;0.10;;;;;;;;;;6352038;27;20022;-71
2022/10/03 02:24:35;;;;;;;8.48;3.35;;;;;;;;;;6346742;27;20391;-71
2022/10/03 02:27:40;;;;;;;0.88;0.50;;;;;;;;;;6335318;28;20017;-72
2022/10/03 02:30:55;;;;;;;2.05;1.95;;;;;;;;;;6361513;27;20111;-72
2022/10/03 02:34:07;;;;;;;2.65;1.40;;;;;;;;;;6360862;27;20027;-73
2022/10/03 02:37:47;;;;;;;2.72;1.80;;;;;;;;;;6355879;27;20020;-72
2022/10/03 02:41:02;;;;;;;2.55;1.20;;;;;;;;;;6214094;28;20025;-70
2022/10/03 02:44:28;;;;;;;1.02;1.00;;;;;;;;;;6226257;28;20436;-71
2022/10/03 02:47:47;;;;;;;0.55;0.55;;;;;;;;;;6319905;27;20367;-71
2022/10/03 02:50:57;;;;;;;3.20;1.65;;;;;;;;;;6341183;28;20540;-72
2022/10/03 02:54:00;;;;;;;0.80;0.80;;;;;;;;;;6350801;27;20027;-71
2022/10/03 02:57:09;;;;;;;27.73;2.47;;;;;;;;;;6362517;27;20047;-71
2022/10/03 03:00:11;;;;;;;0.93;0.93;;;;;;;;;;6346607;27;20027;-71
2022/10/03 03:03:30;;;;;;;2.50;1.48;;;;;;;;;;6350563;27;20493;-72
2022/10/03 03:06:36;;;;;;;1.67;1.58;;;;;;;;;;6346230;27;20027;-72
2022/10/03 03:09:46;;;;;;;7.43;1.25;;;;;;;;;;6360068;27;20011;-72
2022/10/03 03:12:52;;;;;;;1.00;1.00;;;;;;;;;;6354091;27;20011;-72
2022/10/03 03:16:26;;;;;;;5.13;3.05;;;;;;;;;;6354755;27;20015;-72
2022/10/03 03:19:42;;;;;;;0.43;0.43;;;;;;;;;;6359271;27;20003;-71
2022/10/03 03:22:42;;;;;;;1.00;0.98;;;;;;;;;;6361032;27;20015;-72
2022/10/03 03:25:54;;;;;;;0.88;0.82;;;;;;;;;;6353818;27;20043;-72
2022/10/03 03:28:55;;;;;;;0.63;0.63;;;;;;;;;;6360166;27;20026;-72
2022/10/03 03:32:06;;;;;;;4.47;1.73;;;;;;;;;;6355332;27;20364;-72
2022/10/03 03:35:18;;;;;;;0.38;0.38;;;;;;;;;;6357241;27;20095;-72
2022/10/03 03:38:25;;;;;;;1.65;1.48;;;;;;;;;;6331178;28;20034;-72
2022/10/03 03:41:42;;;;;;;1.55;1.45;;;;;;;;;;6331703;28;20034;-72
2022/10/03 03:44:54;;;;;;;2.00;1.88;;;;;;;;;;6340421;28;20042;-71
2022/10/03 03:48:11;;;;;;;0.30;0.30;;;;;;;;;;6341212;28;20031;-71
2022/10/03 03:51:20;;;;;;;1.27;1.23;;;;;;;;;;6345689;28;20444;-72
2022/10/03 03:54:33;;;;;;;0.10;0.10;;;;;;;;;;6351726;28;20027;-72
2022/10/03 03:57:53;;;;;;;3.15;2.90;;;;;;;;;;6361141;28;20054;-71
2022/10/03 04:01:09;;;;;;;0.77;0.77;;;;;;;;;;6347746;28;20032;-71
2022/10/03 04:04:28;;;;;;;1.65;1.55;;;;;;;;;;6360770;28;20020;-72
2022/10/03 04:07:31;;;;;;;1.98;1.65;;;;;;;;;;6351432;28;20020;-72
2022/10/03 04:10:43;;;;;;;0.52;0.50;;;;;;;;;;6360783;28;20023;-72
2022/10/03 04:13:46;;;;;;;1.00;1.00;;;;;;;;;;6361315;28;20052;-72
2022/10/03 04:20:29;;;;;;;0.32;0.32;;;;;;;;;;6356552;28;20031;-72
2022/10/03 04:23:49;;;;;;;0.73;0.60;;;;;;;;;;6356879;27;20045;-72
2022/10/03 04:26:59;;;;;;;1.17;1.05;;;;;;;;;;6359965;27;20264;-72
2022/10/03 04:30:13;;;;;;;5.00;1.48;;;;;;;;;;6362872;27;20081;-72
2022/10/03 04:33:21;;;;;;;1.30;0.98;;;;;;;;;;6357445;27;20030;-72
2022/10/03 04:36:41;;;;;;;0.50;0.50;;;;;;;;;;6360801;27;20054;-72
2022/10/03 04:39:42;;;;;;;0.30;0.30;;;;;;;;;;6360508;27;20482;-72
2022/10/03 04:42:48;;;;;;;1.50;1.40;;;;;;;;;;6329439;27;20107;-72
2022/10/03 04:45:51;;;;;;;1.48;1.45;;;;;;;;;;6334787;27;20016;-72
2022/10/03 04:49:13;;;;;;;1.13;1.05;;;;;;;;;;6346901;27;20064;-73
2022/10/03 04:52:36;;;;;;;0.35;0.35;;;;;;;;;;6367234;27;20016;-72
2022/10/03 04:55:41;;;;;;;0.30;0.30;;;;;;;;;;6369116;27;20042;-72
2022/10/03 04:58:57;;;;;;;9.07;1.90;;;;;;;;;;6356770;27;20043;-72
2022/10/03 05:02:11;;;;;;;0.20;0.20;;;;;;;;;;6364414;27;20030;-72
2022/10/03 05:05:14;;;;;;;0.10;0.10;;;;;;;;;;6350899;27;20028;-72
2022/10/03 05:08:21;;;;;;;0.45;0.45;;;;;;;;;;6349890;27;20038;-72
2022/10/03 05:11:40;;;;;;;0.28;0.28;;;;;;;;;;6346774;27;20027;-72
2022/10/03 05:14:59;;;;;;;0.77;0.77;;;;;;;;;;6366824;27;20015;-72
2022/10/03 05:18:03;;;;;;;1.05;0.90;;;;;;;;;;6344753;27;20020;-72
2022/10/03 05:21:19;;;;;;;0.10;0.10;;;;;;;;;;6363063;27;20372;-71
2022/10/03 05:24:37;;;;;;;0.32;0.32;;;;;;;;;;6359336;27;20012;-72
2022/10/03 05:27:50;;;;;;;0.82;0.82;;;;;;;;;;6355383;27;20018;-72
2022/10/03 05:30:56;;;;;;;0.55;0.55;;;;;;;;;;6363957;27;20027;-72
2022/10/03 05:34:02;;;;;;;2.72;0.82;;;;;;;;;;6357512;27;20030;-72
2022/10/03 05:37:11;;;;;;;2.03;1.92;;;;;;;;;;6364965;27;20025;-71
2022/10/03 05:40:17;;;;;;;0.40;0.40;;;;;;;;;;6356272;27;20019;-72
2022/10/03 05:43:35;;;;;;;0.32;0.32;;;;;;;;;;6348861;27;20019;-71
2022/10/03 05:46:44;;;;;;;0.95;0.95;;;;;;;;;;6342493;27;20022;-71
2022/10/03 05:49:45;;;;;;;0.10;0.10;;;;;;;;;;6358992;27;20398;-71
2022/10/03 05:52:51;;;;;;;0.25;0.25;;;;;;;;;;6361146;27;20028;-71
2022/10/03 05:55:54;;;;;;;0.40;0.40;;;;;;;;;;6348054;27;20020;-71
2022/10/03 05:58:54;;;;;;;1.05;1.00;;;;;;;;;;6362194;27;20087;-71
2022/10/03 06:01:56;;;;;;;0.90;0.90;;;;;;;;;;6341892;27;20024;-71
2022/10/03 06:05:02;;;;;;;2.58;2.42;;;;;;;;;;6355403;27;20023;-71
2022/10/03 06:08:03;;;;;;;0.20;0.20;;;;;;;;;;6335741;27;20046;-71
2022/10/03 06:11:13;;;;;;;0.20;0.20;;;;;;;;;;6358243;27;20482;-71
2022/10/03 06:14:13;;;;;;;0.20;0.20;;;;;;;;;;6361274;27;20053;-71
2022/10/03 06:17:25;;;;;;;0.30;0.30;;;;;;;;;;6350166;27;20025;-71
2022/10/03 06:20:25;;;;;;;;;;;;;;;;;;6359041;27;20025;-71
2022/10/03 06:23:51;;;;;;;0.45;0.45;;;;;;;;;;6363574;27;19911;-71
2022/10/03 06:26:54;;;;;;;0.32;0.32;;;;;;;;;;6363487;27;20489;-71
2022/10/03 06:30:04;;;;;;;0.10;0.10;;;;;;;;;;6341197;27;20029;-71
2022/10/03 06:33:07;;;;;;;0.43;0.43;;;;;;;;;;6347283;27;20043;-71
2022/10/03 06:36:10;;;;;;;0.50;0.50;;;;;;;;;;6361543;27;20360;-70
2022/10/03 06:39:29;;;;;;;0.25;0.25;;;;;;;;;;6343837;27;20972;-71
2022/10/03 06:42:36;;;;;;;1.30;1.30;;;;;;;;;;6361035;27;20565;-71
2022/10/03 06:46:00;;;;;;;0.50;0.50;;;;;;;;;;6355650;27;20011;-71
2022/10/03 06:49:30;;;;;;;0.10;0.10;;;;;;;;;;6363426;27;20058;-71
2022/10/03 06:52:39;;;;;;;0.28;0.28;;;;;;;;;;6270241;27;20024;-71
2022/10/03 06:55:58;;;;;;;0.77;0.77;;;;;;;;;;6364246;27;20118;-72
2022/10/03 06:59:24;;;;;;;1.58;1.48;;;;;;;;;;6346089;27;20112;-71
2022/10/03 07:02:40;;;;;;;0.98;0.90;;;;;;;;;;6364352;27;20047;-72
2022/10/03 07:05:46;;;;;;;0.90;0.60;;;;;;;;;;6368556;27;20023;-72
2022/10/03 07:09:01;;;;;;;1.63;1.52;;;;;;;;;;6362371;27;20015;-73
2022/10/03 07:12:20;;;;;;;0.65;0.65;;;;;;;;;;6366038;27;20079;-73
2022/10/03 07:15:25;;;;;;;1.55;1.40;;;;;;;;;;6367501;27;20086;-72
2022/10/03 07:18:28;;;;;;;18.10;3.30;;;;;;;;;;6357087;27;20431;-71
2022/10/03 07:21:38;;;;;;;0.75;0.75;;;;;;;;;;6358318;27;20032;-72
2022/10/03 07:24:42;;;;;;;2.85;0.98;;;;;;;;;;6353518;27;20490;-72
2022/10/03 07:28:00;;;;;;;1.27;1.23;;;;;;;;;;6337329;27;20440;-72
2022/10/03 07:31:21;;;;;;;2.13;2.00;;;;;;;;;;6346692;27;20833;-71
2022/10/03 07:34:40;;;;;;;0.52;0.52;;;;;;;;;;6363808;27;20486;-71
2022/10/03 07:41:20;;;;;;;1.15;1.15;;;;;;;;;;6351582;27;20031;-72
2022/10/03 07:44:39;;;;;;;0.40;0.40;;;;;;;;;;6366250;28;20386;-71
2022/10/03 07:48:04;;;;;;;0.77;0.77;;;;;;;;;;6336763;28;20015;-72
2022/10/03 07:51:11;;;;;;;1.48;0.82;;;;;;;;;;6341339;28;20019;-72
2022/10/03 07:54:24;;;;;;;0.40;0.40;;;;;;;;;;6359627;28;20015;-72
2022/10/03 07:57:44;;;;;;;0.30;0.30;;;;;;;;;;6343641;27;20042;-72
2022/10/03 08:00:50;;;;;;;2.35;2.17;;;;;;;;;;6347342;27;20506;-72
2022/10/03 08:04:09;;;;;;;11.20;2.00;;;;;;;;;;6363741;27;20039;-72
2022/10/03 08:07:18;;;;;;;0.40;0.40;;;;;;;;;;6364757;27;20024;-72
2022/10/03 08:10:25;;;;;;;0.35;0.35;;;;;;;;;;6348283;27;20024;-71
2022/10/03 08:13:34;;;;;;;0.95;0.95;;;;;;;;;;6352750;27;20026;-72
2022/10/03 08:16:53;;;;;;;0.15;0.15;;;;;;;;;;6347543;27;20019;-72
2022/10/03 08:20:04;;;;;;;0.20;0.20;;;;;;;;;;6342041;27;20058;-72
2022/10/03 08:23:04;;;;;;;0.40;0.40;;;;;;;;;;6368577;27;20007;-73
2022/10/03 08:26:14;;;;;;;0.57;0.57;;;;;;;;;;6368390;27;20099;-71
2022/10/03 08:29:28;;;;;;;1.58;1.48;;;;;;;;;;6368759;27;20007;-71
2022/10/03 08:32:37;;;;;;;0.65;0.65;;;;;;;;;;6368363;27;20019;-71
2022/10/03 08:35:56;;;;;;;9.10;1.73;;;;;;;;;;6364472;27;20016;-72
2022/10/03 08:39:10;;;;;;;1.00;1.00;;;;;;;;;;6349612;27;20436;-71
2022/10/03 08:42:10;;;;;;;0.50;0.50;;;;;;;;;;6368070;27;20048;-72
2022/10/03 08:45:37;;;;;;;0.50;0.50;;;;;;;;;;6366173;27;20102;-72
2022/10/03 08:48:48;;;;;;;0.50;0.50;;;;;;;;;;6361358;27;20027;-72
2022/10/03 08:52:03;;;;;;;3.53;2.30;;;;;;;;;;6367897;27;20042;-73
2022/10/03 08:55:03;;;;;;;0.47;0.47;;;;;;;;;;6365669;27;20037;-72
2022/10/03 08:58:22;;;;;;;0.23;0.23;;;;;;;;;;6364846;27;20039;-72
2022/10/03 09:01:28;;;;;;;0.10;0.10;;;;;;;;;;6360198;28;20493;-72
2022/10/03 09:04:34;;;;;;;0.10;0.10;;;;;;;;;;6337867;28;20532;-73
2022/10/03 09:07:53;;;;;;;0.50;0.50;;;;;;;;;;6363409;28;20019;-73
2022/10/03 09:11:11;;;;;;;1.05;0.95;;;;;;;;;;6361769;28;20471;-72
2022/10/03 09:14:14;;;;;;;2.25;2.05;;;;;;;;;;6360601;28;20532;-73
2022/10/03 09:17:54;;;;;;;2.60;0.90;;;;;;;;;;6355854;28;20023;-72
2022/10/03 09:21:18;;;;;;;0.65;0.65;;;;;;;;;;6240808;28;20025;-73
2022/10/03 09:24:36;;;;;;;0.50;0.50;;;;;;;;;;6236045;28;20018;-72
2022/10/03 09:27:45;;;;;;;0.20;0.20;;;;;;;;;;6352079;28;20038;-72
2022/10/03 09:30:52;;;;;;;1.80;1.65;;;;;;;;;;6364274;28;20026;-72
2022/10/03 09:34:13;;;;;;;1.33;0.93;;;;;;;;;;6355808;28;20432;-71
2022/10/03 09:37:23;;;;;;;0.50;0.50;;;;;;;;;;6333670;28;20034;-71
2022/10/03 09:40:33;;;;;;;1.10;0.80;;;;;;;;;;6360431;28;20020;-71
2022/10/03 09:43:36;;;;;;;0.75;0.75;;;;;;;;;;6362659;28;20007;-71
2022/10/03 09:46:39;;;;;;;0.65;0.65;;;;;;;;;;6352322;28;20056;-71
2022/10/03 09:49:45;;;;;;;0.40;0.40;;;;;;;;;;6356573;28;20097;-71
2022/10/03 09:52:52;;;;;;;0.10;0.10;;;;;;;;;;6365176;28;20522;-71
2022/10/03 09:59:35;;;;;;;0.60;0.60;;;;;;;;;;6245420;28;20421;-71
2022/10/03 10:02:50;;;;;;;0.10;0.10;;;;;;;;;;6252422;28;20079;-73
2022/10/03 10:05:59;;;;;;;0.20;0.20;;;;;;;;;;6251810;28;20805;-72
2022/10/03 10:08:59;;;;;;;0.20;0.20;;;;;;;;;;6245888;28;20060;-72
2022/10/03 10:12:05;;;;;;;0.20;0.20;;;;;;;;;;6250460;28;20022;-72
2022/10/03 10:15:05;;;;;;;0.55;0.55;;;;;;;;;;6241324;28;20021;-71
2022/10/03 10:18:11;;;;;;;0.30;0.30;;;;;;;;;;6248339;28;20064;-72
2022/10/03 10:21:12;;;;;;;0.30;0.30;;;;;;;;;;6242221;28;20014;-72
2022/10/03 10:24:27;;;;;;;0.60;0.60;;;;;;;;;;6236927;28;20024;-72
2022/10/03 10:27:46;;;;;;;0.30;0.30;;;;;;;;;;6237168;28;20057;-72
2022/10/03 10:30:49;;;;;;;0.40;0.40;;;;;;;;;;6237191;28;20022;-72
2022/10/03 10:34:08;;;;;;;0.60;0.60;;;;;;;;;;6238104;28;20093;-72
2022/10/03 10:37:32;;;;;;;1.02;0.95;;;;;;;;;;6236475;28;20067;-71
2022/10/03 10:40:42;;;;;;;0.38;0.38;;;;;;;;;;6242555;28;20378;-72
2022/10/03 10:43:53;;;;;;;0.28;0.28;;;;;;;;;;6250117;28;20022;-71
2022/10/03 10:47:12;;;;;;;0.30;0.30;;;;;;;;;;6239408;28;20389;-71
2022/10/03 10:50:40;;;;;;;1.17;1.15;;;;;;;;;;6236000;28;20045;-72
2022/10/03 10:53:59;;;;;;;0.20;0.20;;;;;;;;;;6238258;28;20021;-72
2022/10/03 10:57:00;;;;;;;0.10;0.10;;;;;;;;;;6237231;28;20402;-72
2022/10/03 11:00:17;;;;;;;0.53;0.53;;;;;;;;;;6237101;28;20022;-71
2022/10/03 11:03:21;;;;;;;0.25;0.25;;;;;;;;;;6234347;28;20021;-72
2022/10/03 11:06:32;;;;;;;0.30;0.30;;;;;;;;;;6234958;28;20107;-72
2022/10/03 11:09:45;;;;;;;0.50;0.50;;;;;;;;;;6223278;28;20037;-72
2022/10/03 11:13:23;;;;;;;1.45;0.95;;;;;;;;;;6219114;28;20026;-72
2022/10/03 11:16:33;;;;;;;4.55;1.45;;;;;;;;;;6214818;28;20024;-72
2022/10/03 11:19:57;;;;;;;1.35;0.90;;;;;;;;;;6215743;28;20104;-72
2022/10/03 11:23:16;;;;;;;0.20;0.20;;;;;;;;;;6199515;28;20497;-72
2022/10/03 11:26:25;;;;;;;0.25;0.25;;;;;;;;;;6221062;28;20109;-72
2022/10/03 11:29:49;;;;;;;1.08;0.98;;;;;;;;;;6217922;28;20029;-72
2022/10/03 11:32:55;;;;;;;0.68;0.68;;;;;;;;;;6190524;28;20461;-72
2022/10/03 11:36:23;;;;;;;0.45;0.45;;;;;;;;;;6218296;28;20482;-72
2022/10/03 11:39:42;;;;;;;0.30;0.30;;;;;;;;;;6213922;28;20535;-71
2022/10/03 11:42:53;;;;;;;1.65;1.55;;;;;;;;;;6226087;28;20470;-71
2022/10/03 11:45:55;;;;;;;1.10;1.00;;;;;;;;;;6219730;28;20022;-71
2022/10/03 11:48:55;;;;;;;;;;;;;;;;;;6223515;28;20117;-71
2022/10/03 11:51:56;;;;;;;0.17;0.17;;;;;;;;;;6225411;28;19905;-72
2022/10/03 11:55:15;;;;;;;1.20;1.20;;;;;;;;;;6222766;28;20032;-72
2022/10/03 11:58:34;;;;;;;1.52;1.10;;;;;;;;;;6222919;28;20546;-71
2022/10/03 12:01:34;;;;;;;0.45;0.45;;;;;;;;;;6215522;28;20029;-72
2022/10/03 12:04:53;;;;;;;0.22;0.22;;;;;;;;;;6219800;28;20017;-71
2022/10/03 12:11:37;;;;;;;1.08;1.00;;;;;;;;;;6215899;28;20021;-72
2022/10/03 12:14:45;;;;;;;0.47;0.47;;;;;;;;;;6223100;28;20065;-72
2022/10/03 12:17:51;;;;;;;0.40;0.40;;;;;;;;;;6206943;28;20367;-72
2022/10/03 12:21:10;;;;;;;0.65;0.63;;;;;;;;;;6232459;28;20021;-72
2022/10/03 12:24:17;;;;;;;0.82;0.82;;;;;;;;;;6218809;28;20028;-72
2022/10/03 12:27:25;;;;;;;0.65;0.65;;;;;;;;;;6220026;28;20022;-71
2022/10/03 12:30:28;;;;;;;0.65;0.65;;;;;;;;;;6215908;28;20421;-72
2022/10/03 12:33:50;;;;;;;0.45;0.45;;;;;;;;;;6235037;28;20026;-72
2022/10/03 12:36:54;;;;;;;0.45;0.45;;;;;;;;;;6214417;28;20026;-72
2022/10/03 12:40:02;;;;;;;0.52;0.52;;;;;;;;;;6220067;28;20032;-72
2022/10/03 12:43:23;;;;;;;0.10;0.10;;;;;;;;;;6221280;28;20495;-72
2022/10/03 12:46:23;;;;;;;0.47;0.47;;;;;;;;;;6218302;28;20072;-71
2022/10/03 12:49:42;;;;;;;1.48;1.13;;;;;;;;;;6224066;28;20025;-72
2022/10/03 12:52:53;;;;;;;1.88;1.77;;;;;;;;;;6231756;28;20083;-71
2022/10/03 12:56:03;;;;;;;0.10;0.10;;;;;;;;;;6220372;28;20029;-73
2022/10/03 12:59:19;;;;;;;0.10;0.10;;;;;;;;;;6218608;28;20081;-72
2022/10/03 13:02:23;;;;;;;0.40;0.40;;;;;;;;;;6220387;28;20018;-72
2022/10/03 13:05:29;;;;;;;2.08;1.08;;;;;;;;;;6227709;28;20033;-72
2022/10/03 13:08:39;;;;;;;0.30;0.30;;;;;;;;;;6232005;28;20036;-72
2022/10/03 13:11:42;;;;;;;1.17;0.85;;;;;;;;;;6218226;28;20040;-71
2022/10/03 13:15:05;;;;;;;0.20;0.20;;;;;;;;;;6219010;28;20030;-72
2022/10/03 13:18:22;;;;;;;4.28;0.70;;;;;;;;;;6220628;28;20080;-72
2022/10/03 13:21:31;;;;;;;0.90;0.90;;;;;;;;;;6213725;28;20449;-73
2022/10/03 13:24:45;;;;;;;1.38;1.27;;;;;;;;;;6201138;28;20036;-72
2022/10/03 13:27:49;;;;;;;1.15;1.15;;;;;;;;;;6221928;28;20025;-72
2022/10/03 13:30:55;;;;;;;0.73;0.73;;;;;;;;;;6234852;28;20445;-72
2022/10/03 13:33:59;;;;;;;2.15;1.95;;;;;;;;;;6228296;28;20025;-73
2022/10/03 13:37:08;;;;;;;0.40;0.40;;;;;;;;;;6223169;28;20030;-73
2022/10/03 13:40:14;;;;;;;1.10;1.08;;;;;;;;;;6214594;28;20420;-73
2022/10/03 13:43:18;;;;;;;0.68;0.68;;;;;;;;;;6216295;28;20014;-73
2022/10/03 13:46:22;;;;;;;2.20;2.03;;;;;;;;;;6218359;28;20028;-72
2022/10/03 13:49:25;;;;;;;0.45;0.20;;;;;;;;;;6215073;28;20097;-72
2022/10/03 13:52:34;;;;;;;0.70;0.70;;;;;;;;;;6216151;28;20026;-72
2022/10/03 13:55:42;;;;;;;0.28;0.28;;;;;;;;;;6215851;28;20030;-72
2022/10/03 13:58:51;;;;;;;1.25;1.15;;;;;;;;;;6217187;28;20073;-73
2022/10/03 14:01:51;;;;;;;0.90;0.90;;;;;;;;;;6219562;28;20509;-73
2022/10/03 14:05:00;;;;;;;2.03;1.70;;;;;;;;;;6218662;28;20071;-73
2022/10/03 14:08:09;;;;;;;1.45;0.70;;;;;;;;;;6217668;28;20497;-73
2022/10/03 14:11:13;;;;;;;1.13;0.95;;;;;;;;;;6216524;28;20028;-72
2022/10/03 14:14:26;;;;;;;1.23;1.13;;;;;;;;;;6216357;28;20025;-72
2022/10/03 14:17:40;;;;;;;1.23;1.13;;;;;;;;;;6209206;28;20037;-72
2022/10/03 14:20:59;;;;;;;4.07;2.08;;;;;;;;;;6211110;28;20018;-72
2022/10/03 14:24:19;;;;;;;0.40;0.40;;;;;;;;;;6217882;28;20017;-72
2022/10/03 14:27:38;;;;;;;0.40;0.40;;;;;;;;;;6232924;28;20029;-71
2022/10/03 14:30:49;;;;;;;0.52;0.45;;;;;;;;;;6219936;28;20025;-72
2022/10/03 14:34:01;;;;;;;1.33;1.30;;;;;;;;;;6218692;28;20064;-71
2022/10/03 14:37:01;;;;;;;1.30;1.20;;;;;;;;;;6230494;28;20033;-72
2022/10/03 14:40:11;;;;;;;1.38;1.27;;;;;;;;;;6219382;28;20030;-72
2022/10/03 14:43:14;;;;;;;0.43;0.43;;;;;;;;;;6211804;28;20118;-73
2022/10/03 14:46:15;;;;;;;0.75;0.75;;;;;;;;;;6226527;28;20028;-72
2022/10/03 14:49:22;;;;;;;1.90;1.70;;;;;;;;;;6222717;28;20029;-73
2022/10/03 14:52:22;;;;;;;0.43;0.43;;;;;;;;;;6219408;28;20037;-72
2022/10/03 14:55:24;;;;;;;0.40;0.40;;;;;;;;;;6215537;28;20026;-73
2022/10/03 14:58:28;;;;;;;0.70;0.70;;;;;;;;;;6231379;28;20084;-71
2022/10/03 15:01:28;;;;;;;1.00;1.00;;;;;;;;;;6222451;28;20152;-73
2022/10/03 15:04:36;;;;;;;0.63;0.63;;;;;;;;;;6235510;28;20013;-72
2022/10/03 15:07:38;;;;;;;1.17;1.13;;;;;;;;;;6226816;28;20068;-72
2022/10/03 15:10:38;;;;;;;;;;;;;;;;;;6230592;28;20025;-73
2022/10/03 15:13:53;;;;;;;0.60;0.60;;;;;;;;;;6230662;28;19905;-72
2022/10/03 15:16:55;;;;;;;2.55;2.35;;;;;;;;;;6215035;28;20417;-74
2022/10/03 15:19:56;;;;;;;0.30;0.30;;;;;;;;;;6229318;28;20018;-72
2022/10/03 15:22:59;;;;;;;0.35;0.32;;;;;;;;;;6222383;28;20057;-73
2022/10/03 15:26:00;;;;;;;2.00;1.88;;;;;;;;;;6219156;28;20021;-72
2022/10/03 15:29:02;;;;;;;1.20;1.20;;;;;;;;;;6225320;28;20103;-72
2022/10/03 15:32:03;;;;;;;0.65;0.65;;;;;;;;;;6225899;28;20026;-73
2022/10/03 15:35:04;;;;;;;2.63;2.13;;;;;;;;;;6222294;28;20099;-71
2022/10/03 15:38:09;;;;;;;3.42;3.13;;;;;;;;;;6239253;28;20065;-71
2022/10/03 15:41:16;;;;;;;16.85;3.92;;;;;;;;;;6217865;28;20479;-72
2022/10/03 15:44:17;;;;;;;1.77;0.95;;;;;;;;;;6220414;28;20018;-72
2022/10/03 15:47:20;;;;;;;1.47;1.47;;;;;;;;;;6230070;28;20021;-72
2022/10/03 15:50:22;;;;;;;1.63;1.42;;;;;;;;;;6224308;28;20047;-71
2022/10/03 15:53:40;;;;;;;1.98;1.88;;;;;;;;;;6233135;28;20111;-72
2022/10/03 15:56:42;;;;;;;1.80;1.70;;;;;;;;;;6225098;28;20651;-72
2022/10/03 15:59:44;;;;;;;2.03;1.88;;;;;;;;;;6219943;28;20390;-72
2022/10/03 16:02:52;;;;;;;1.55;1.27;;;;;;;;;;6240339;28;20037;-72
2022/10/03 16:06:01;;;;;;;6.00;1.98;;;;;;;;;;6226244;28;20466;-72
2022/10/03 16:09:05;;;;;;;1.35;1.30;;;;;;;;;;6243822;28;20060;-72
2022/10/03 16:12:24;;;;;;;1.33;1.27;;;;;;;;;;6215574;28;20105;-72
2022/10/03 16:15:36;;;;;;;0.88;0.88;;;;;;;;;;6239314;28;20152;-72
2022/10/03 16:18:47;;;;;;;0.95;0.95;;;;;;;;;;6216517;28;20013;-72
2022/10/03 16:21:50;;;;;;;2.10;1.98;;;;;;;;;;6216237;28;20533;-72
2022/10/03 16:25:00;;;;;;;0.30;0.30;;;;;;;;;;6216643;28;20036;-72
2022/10/03 16:28:05;;;;;;;0.30;0.30;;;;;;;;;;6220011;28;20029;-73
2022/10/03 16:31:12;;;;;;;3.85;3.47;;;;;;;;;;6216728;28;20540;-73
2022/10/03 16:34:14;;;;;;;4.05;2.10;;;;;;;;;;6220519;28;20018;-73
2022/10/03 16:37:19;;;;;;;0.75;0.75;;;;;;;;;;6222929;28;20030;-72
2022/10/03 16:40:21;;;;;;;0.70;0.70;;;;;;;;;;6222709;28;20022;-72
2022/10/03 16:43:21;;;;;;;1.27;1.23;;;;;;;;;;6219401;28;20018;-72
2022/10/03 16:46:22;;;;;;;0.53;0.53;;;;;;;;;;6228238;28;20079;-73
2022/10/03 16:52:57;;;;;;;1.33;1.05;;;;;;;;;;6219225;28;20357;-73
2022/10/03 16:56:03;;;;;;;3.30;2.60;;;;;;;;;;6217121;28;20022;-72
2022/10/03 16:59:16;;;;;;;0.60;0.60;;;;;;;;;;6212943;28;20366;-72
2022/10/03 17:02:26;;;;;;;1.52;1.13;;;;;;;;;;6219206;28;20018;-72
2022/10/03 17:05:26;;;;;;;3.10;1.02;;;;;;;;;;6221691;28;20022;-72
2022/10/03 17:08:29;;;;;;;5.70;3.23;;;;;;;;;;6213374;28;20128;-72
2022/10/03 17:11:32;;;;;;;2.85;1.38;;;;;;;;;;6218597;28;20076;-73
2022/10/03 17:14:37;;;;;;;2.08;1.67;;;;;;;;;;6213101;28;20024;-72
2022/10/03 17:17:58;;;;;;;2.20;1.30;;;;;;;;;;6230591;28;20022;-73
2022/10/03 17:21:01;;;;;;;6.03;3.20;;;;;;;;;;6219701;28;20010;-74
2022/10/03 17:24:14;;;;;;;2.75;2.28;;;;;;;;;;6224854;28;20108;-73
2022/10/03 17:27:17;;;;;;;1.35;1.25;;;;;;;;;;6229327;28;20052;-73
2022/10/03 17:30:17;;;;;;;7.68;3.05;;;;;;;;;;6213837;28;20032;-72
2022/10/03 17:33:17;;;;;;;2.72;2.28;;;;;;;;;;6211936;28;20021;-72
2022/10/03 17:36:37;;;;;;;2.03;1.85;;;;;;;;;;6212348;28;20040;-73
2022/10/03 17:39:41;;;;;;;1.20;1.15;;;;;;;;;;6218910;28;20615;-73
2022/10/03 17:42:52;;;;;;;2.08;1.17;;;;;;;;;;6231982;28;20048;-72
2022/10/03 17:45:52;;;;;;;8.10;1.95;;;;;;;;;;6215868;28;20033;-72
2022/10/03 17:49:07;;;;;;;0.40;0.40;;;;;;;;;;6216513;28;20029;-73
2022/10/03 17:52:16;;;;;;;0.75;0.75;;;;;;;;;;6212838;28;20044;-73
2022/10/03 17:55:23;;;;;;;0.55;0.55;;;;;;;;;;6218622;28;20051;-73
2022/10/03 17:58:25;;;;;;;0.70;0.70;;;;;;;;;;6214048;28;20049;-72
2022/10/03 18:01:29;;;;;;;2.85;1.88;;;;;;;;;;6215699;28;20108;-72
2022/10/03 18:04:34;;;;;;;1.05;0.95;;;;;;;;;;6215862;28;20477;-72
2022/10/03 18:07:35;;;;;;;0.60;0.60;;;;;;;;;;6214288;28;20021;-71
2022/10/03 18:10:37;;;;;;;3.67;3.37;;;;;;;;;;6216691;28;20014;-72
2022/10/03 18:13:41;;;;;;;9.13;4.57;;;;;;;;;;6223424;28;20017;-73
2022/10/03 18:16:45;;;;;;;5.88;2.40;;;;;;;;;;6221274;28;20720;-73
2022/10/03 18:19:52;;;;;;;2.38;2.17;;;;;;;;;;6214174;28;20060;-72
2022/10/03 18:22:57;;;;;;;1.02;1.02;;;;;;;;;;6216248;28;20030;-72
2022/10/03 18:26:01;;;;;;;0.80;0.80;;;;;;;;;;6217076;28;20457;-72
2022/10/03 18:29:20;;;;;;;1.60;1.50;;;;;;;;;;6218755;28;20095;-72
2022/10/03 18:32:24;;;;;;;2.75;2.55;;;;;;;;;;6219266;28;20030;-72
2022/10/03 18:35:25;;;;;;;1.00;1.00;;;;;;;;;;6218741;28;20032;-73
2022/10/03 18:38:27;;;;;;;0.77;0.77;;;;;;;;;;6216821;28;20021;-73
2022/10/03 18:41:27;;;;;;;8.30;4.03;;;;;;;;;;6221183;28;20412;-73
2022/10/03 18:44:29;;;;;;;14.80;3.10;;;;;;;;;;6224997;28;20026;-73
2022/10/03 18:47:30;;;;;;;1.35;1.25;;;;;;;;;;6234059;28;20030;-72
2022/10/03 18:50:42;;;;;;;0.53;0.53;;;;;;;;;;6217903;28;20033;-73
2022/10/03 18:53:45;;;;;;;1.33;1.13;;;;;;;;;;6219067;28;20029;-73
2022/10/03 18:56:56;;;;;;;0.30;0.30;;;;;;;;;;6220257;28;20117;-72
2022/10/03 19:00:00;;;;;;;1.00;1.00;;;;;;;;;;6218492;28;20022;-73
2022/10/03 19:03:02;;;;;;;1.98;1.75;;;;;;;;;;6233669;28;20071;-72
2022/10/03 19:06:04;;;;;;;0.20;0.20;;;;;;;;;;6211826;28;20073;-73
2022/10/03 19:09:31;;;;;;;0.30;0.30;;;;;;;;;;6219834;28;20083;-73
2022/10/03 19:12:33;;;;;;;0.38;0.38;;;;;;;;;;6213807;28;20069;-73
2022/10/03 19:15:36;;;;;;;;;;;;;;;;;;6222763;28;20022;-73